Time;durP1;ratioP1;P1;durP2;ratioP2;P2;SDS_P1;SDS_P2;PMS_P1;PMS_P2;Temp;Humidity;BMP_temperature;BMP_pressure;BME280_temperature;BME280_humidity;BME280_pressure;Samples;Min_cycle;Max_cycle;Signal;HPM_P1;HPM_P2
2021/12/28 00:01:22;;;;;;;;;0.25;0.25;;;;;8.20;84.79;97996.19;5089455;28;8818;-57
2021/12/28 00:03:50;;;;;;;;;0.00;0.00;;;;;8.20;84.84;97990.88;5088657;28;8834;-57
2021/12/28 00:06:18;;;;;;;;;0.00;0.00;;;;;8.21;84.33;97989.88;5088642;28;9531;-57
2021/12/28 00:08:45;;;;;;;;;0.00;0.00;;;;;8.17;84.49;97997.28;5090113;28;8968;-57
2021/12/28 00:11:13;;;;;;;;;0.00;0.00;;;;;8.19;84.91;97990.03;5090997;28;8841;-57
2021/12/28 00:13:42;;;;;;;;;0.00;0.00;;;;;8.20;84.81;97989.03;5090233;28;8877;-57
2021/12/28 00:16:29;;;;;;;;;3.00;1.00;;;;;8.21;84.33;97985.41;5089852;28;8858;-57
2021/12/28 00:18:56;;;;;;;;;1.00;1.00;;;;;8.22;84.69;97984.41;5089389;28;8861;-57
2021/12/28 00:21:24;;;;;;;;;0.50;0.50;;;;;8.22;84.20;97984.41;5090103;28;8830;-57
2021/12/28 00:23:52;;;;;;;;;0.50;0.50;;;;;8.24;84.63;97987.75;5089638;28;8857;-57
2021/12/28 00:26:22;;;;;;;;;0.00;0.00;;;;;8.25;84.50;97988.56;5089800;28;8834;-57
2021/12/28 00:28:50;;;;;;;;;1.00;1.00;;;;;8.25;84.34;97988.56;5091605;28;8845;-57
2021/12/28 00:31:18;;;;;;;;;0.75;0.75;;;;;8.26;84.04;97980.47;5090589;28;8834;-57
2021/12/28 00:33:48;;;;;;;;;1.00;1.00;;;;;8.28;84.15;97989.09;5090019;28;8838;-57
2021/12/28 00:36:16;;;;;;;;;3.00;1.50;;;;;8.30;84.37;97979.16;5090701;28;9541;-57
2021/12/28 00:38:44;;;;;;;;;0.50;0.50;;;;;8.33;84.32;97981.50;5090749;28;8842;-57
2021/12/28 00:41:12;;;;;;;;;1.00;1.00;;;;;8.36;83.80;97969.78;5089425;28;9551;-57
2021/12/28 00:43:40;;;;;;;;;3.00;3.00;;;;;8.39;84.51;97975.59;5089957;28;8838;-57
2021/12/28 00:46:07;;;;;;;;;4.00;4.00;;;;;8.41;83.92;97970.09;5090085;28;8862;-57
2021/12/28 00:48:35;;;;;;;;;4.00;3.00;;;;;8.45;83.75;97977.59;5089188;28;8956;-57
2021/12/28 00:51:03;;;;;;;;;3.00;3.00;;;;;8.47;84.21;97975.63;5088561;28;8826;-57
2021/12/28 00:53:31;;;;;;;;;1.50;1.50;;;;;8.44;84.14;97969.81;5089196;28;8856;-57
2021/12/28 00:55:58;;;;;;;;;1.00;1.00;;;;;8.43;84.13;97968.97;5093453;28;8842;-57
2021/12/28 00:58:27;;;;;;;;;1.00;1.00;;;;;8.42;84.30;97971.78;5094251;28;8830;-57
2021/12/28 01:00:55;;;;;;;;;2.00;2.00;;;;;8.38;84.16;97963.28;5093447;28;8876;-57
2021/12/28 01:03:23;;;;;;;;;3.00;3.00;;;;;8.36;84.12;97959.97;5091131;28;8895;-57
2021/12/28 01:05:51;;;;;;;;;3.50;2.25;;;;;8.32;84.44;97963.09;5093016;28;9476;-57
2021/12/28 01:08:19;;;;;;;;;1.00;1.00;;;;;8.29;84.56;97956.28;5093654;28;8838;-57
2021/12/28 01:10:47;;;;;;;;;3.00;3.00;;;;;8.26;84.75;97943.34;5094395;28;8842;-57
2021/12/28 01:13:14;;;;;;;;;1.00;1.00;;;;;8.26;84.13;97935.41;5094492;28;8838;-57
2021/12/28 01:15:42;;;;;;;;;0.50;0.50;;;;;8.25;84.72;97933.75;5093678;28;8858;-57
2021/12/28 01:18:10;;;;;;;;;3.00;1.50;;;;;8.22;84.48;97934.03;5093709;28;8845;-57
2021/12/28 01:20:37;;;;;;;;;1.00;1.00;;;;;8.18;84.62;97930.03;5093302;28;8869;-57
2021/12/28 01:23:06;;;;;;;;;3.00;2.50;;;;;8.15;84.76;97927.66;5093564;28;9018;-57
2021/12/28 01:25:33;;;;;;;;;1.00;1.00;;;;;8.13;85.04;97927.00;5093630;28;8842;-57
2021/12/28 01:28:01;;;;;;;;;1.00;1.00;;;;;8.10;84.73;97924.66;5092835;28;8860;-57
2021/12/28 01:30:28;;;;;;;;;0.75;0.75;;;;;8.08;85.16;97921.34;5092318;28;8888;-57
2021/12/28 01:32:59;;;;;;;;;0.50;0.50;;;;;8.05;84.73;97929.59;5092405;28;8947;-57
2021/12/28 01:35:26;;;;;;;;;1.00;1.00;;;;;7.99;84.97;97922.25;5092889;28;8834;-57
2021/12/28 01:37:54;;;;;;;;;3.00;1.00;;;;;7.92;85.40;97915.91;5092095;28;8846;-57
2021/12/28 01:40:21;;;;;;;;;1.00;1.00;;;;;7.84;85.25;97915.03;5092248;28;8848;-57
2021/12/28 01:42:49;;;;;;;;;1.00;1.00;;;;;7.77;85.24;97924.59;5092967;28;8948;-57
2021/12/28 01:45:17;;;;;;;;;1.00;1.00;;;;;7.70;85.50;97924.38;5091861;28;8878;-57
2021/12/28 01:47:44;;;;;;;;;2.00;1.00;;;;;7.68;85.62;97924.69;5093597;28;8841;-57
2021/12/28 01:50:12;;;;;;;;;2.50;1.00;;;;;7.64;85.60;97918.03;5093394;28;8838;-57
2021/12/28 01:52:40;;;;;;;;;1.00;1.00;;;;;7.56;85.79;97925.91;5093321;28;8854;-57
2021/12/28 01:55:07;;;;;;;;;2.00;0.50;;;;;7.48;85.61;97926.66;5092226;28;8846;-57
2021/12/28 01:57:35;;;;;;;;;1.00;1.00;;;;;7.43;85.96;97933.41;5091874;28;8841;-57
2021/12/28 02:00:03;;;;;;;;;0.25;0.25;;;;;7.36;85.83;97925.22;5090977;28;8834;-57
2021/12/28 02:02:31;;;;;;;;;0.50;0.00;;;;;7.29;85.95;97933.94;5092538;28;8849;-57
2021/12/28 02:04:58;;;;;;;;;0.00;0.00;;;;;7.18;86.10;97934.13;5091985;28;8838;-57
2021/12/28 02:07:26;;;;;;;;;0.50;0.50;;;;;7.07;86.18;97935.22;5092638;28;8834;-57
2021/12/28 02:09:54;;;;;;;;;0.00;0.00;;;;;6.98;85.87;97936.09;5092362;28;9511;-57
2021/12/28 02:12:22;;;;;;;;;1.00;1.00;;;;;6.88;86.21;97930.03;5092235;28;8940;-57
2021/12/28 02:14:50;;;;;;;;;0.75;0.75;;;;;6.80;86.74;97932.59;5093312;28;8854;-57
2021/12/28 02:17:18;;;;;;;;;0.25;0.00;;;;;6.72;86.74;97931.66;5092262;28;8862;-57
2021/12/28 02:19:45;;;;;;;;;1.00;1.00;;;;;6.67;86.25;97933.94;5092710;28;8860;-57
2021/12/28 02:22:13;;;;;;;;;3.00;1.00;;;;;6.61;86.96;97921.28;5091717;28;8864;-57
2021/12/28 02:24:41;;;;;;;;;0.75;0.50;;;;;6.57;86.85;97923.41;5092404;28;8858;-57
2021/12/28 02:27:08;;;;;;;;;1.00;1.00;;;;;6.54;87.50;97925.50;5091234;28;8961;-56
2021/12/28 02:29:36;;;;;;;;;2.00;1.00;;;;;6.50;86.90;97929.41;5092273;28;8829;-56
2021/12/28 02:32:04;;;;;;;;;0.75;0.75;;;;;6.48;86.98;97916.34;5091899;28;9269;-56
2021/12/28 02:34:32;;;;;;;;;1.00;1.00;;;;;6.48;87.15;97913.72;5092015;28;8845;-56
2021/12/28 02:36:59;;;;;;;;;3.25;3.25;;;;;6.48;87.16;97904.94;5091182;28;8837;-57
2021/12/28 02:39:27;;;;;;;;;1.00;1.00;;;;;6.51;86.86;97908.09;5091940;28;9523;-56
2021/12/28 02:41:56;;;;;;;;;0.50;0.50;;;;;6.54;86.81;97905.16;5091347;28;8860;-56
2021/12/28 02:44:24;;;;;;;;;0.80;0.80;;;;;6.59;86.92;97902.09;5092767;28;8841;-56
2021/12/28 02:46:52;;;;;;;;;1.80;1.80;;;;;6.66;86.69;97896.06;5091720;28;8864;-57
2021/12/28 02:49:19;;;;;;;;;3.50;2.00;;;;;6.76;86.55;97894.19;5091100;28;8857;-56
2021/12/28 02:51:48;;;;;;;;;1.00;1.00;;;;;6.86;86.53;97896.78;5091167;28;8969;-56
2021/12/28 02:54:16;;;;;;;;;0.20;0.20;;;;;6.92;86.21;97882.97;5090449;28;8848;-56
2021/12/28 02:56:43;;;;;;;;;0.00;0.00;;;;;6.96;86.07;97873.75;5091301;28;8850;-57
2021/12/28 02:59:11;;;;;;;;;1.00;1.00;;;;;6.98;85.95;97877.06;5091488;28;8850;-56
2021/12/28 03:01:40;;;;;;;;;0.50;0.50;;;;;6.98;85.59;97874.44;5091020;28;8878;-57
2021/12/28 03:04:08;;;;;;;;;1.00;1.00;;;;;6.98;85.97;97872.59;5091677;28;8976;-57
2021/12/28 03:06:36;;;;;;;;;1.00;1.00;;;;;7.01;85.62;97874.97;5091475;28;8826;-56
2021/12/28 03:09:04;;;;;;;;;0.50;0.50;;;;;7.05;85.96;97878.13;5092364;28;8858;-57
2021/12/28 03:11:31;;;;;;;;;1.00;1.00;;;;;7.04;85.89;97868.53;5090924;28;8877;-57
2021/12/28 03:13:59;;;;;;;;;1.00;1.00;;;;;7.02;85.94;97873.97;5091220;28;9476;-56
2021/12/28 03:16:27;;;;;;;;;1.00;1.00;;;;;7.02;86.02;97862.53;5089544;28;8908;-57
2021/12/28 03:18:55;;;;;;;;;0.00;0.00;;;;;7.02;85.50;97857.25;5088465;28;8834;-56
2021/12/28 03:21:22;;;;;;;;;3.00;3.00;;;;;7.03;86.23;97850.97;5089550;28;8844;-56
2021/12/28 03:23:50;;;;;;;;;3.00;3.00;;;;;7.02;85.76;97858.09;5090801;28;8861;-56
2021/12/28 03:26:18;;;;;;;;;1.00;1.00;;;;;7.02;86.09;97850.16;5091705;28;8845;-56
2021/12/28 03:28:45;;;;;;;;;2.00;2.00;;;;;7.02;85.63;97852.81;5091178;28;8826;-56
2021/12/28 03:31:13;;;;;;;;;1.00;1.00;;;;;7.01;85.67;97850.31;5091166;28;8873;-56
2021/12/28 03:33:42;;;;;;;;;1.00;1.00;;;;;6.97;85.75;97839.19;5091260;28;8841;-56
2021/12/28 03:36:09;;;;;;;;;0.00;0.00;;;;;6.92;86.01;97837.97;5090841;28;8838;-56
2021/12/28 03:38:37;;;;;;;;;1.00;1.00;;;;;6.91;85.77;97833.69;5090956;28;8845;-57
2021/12/28 03:41:07;;;;;;;;;1.00;1.00;;;;;6.89;85.44;97838.28;5091094;28;9273;-56
2021/12/28 03:43:36;;;;;;;;;1.00;0.00;;;;;6.90;85.77;97842.59;5091818;28;8830;-56
2021/12/28 03:46:03;;;;;;;;;0.50;0.50;;;;;6.90;86.00;97838.13;5091132;28;8984;-56
2021/12/28 03:48:31;;;;;;;;;2.00;0.50;;;;;6.91;85.82;97833.69;5092636;28;8973;-56
2021/12/28 03:50:59;;;;;;;;;1.00;1.00;;;;;6.95;86.26;97835.03;5091582;28;8852;-56
2021/12/28 03:53:27;;;;;;;;;0.25;0.25;;;;;7.00;85.74;97820.38;5091589;28;9048;-57
2021/12/28 03:55:54;;;;;;;;;1.00;1.00;;;;;7.17;85.54;97829.28;5090652;28;8842;-56
2021/12/28 03:58:22;;;;;;;;;0.25;0.25;;;;;7.37;85.07;97812.22;5091156;28;8988;-56
2021/12/28 04:00:50;;;;;;;;;0.00;0.00;;;;;7.53;85.12;97809.69;5090741;28;8842;-56
2021/12/28 04:03:18;;;;;;;;;0.00;0.00;;;;;7.67;84.79;97803.84;5091321;28;8915;-56
2021/12/28 04:05:46;;;;;;;;;1.00;1.00;;;;;7.76;84.46;97801.09;5092236;28;8840;-56
2021/12/28 04:08:14;;;;;;;;;2.00;2.00;;;;;7.90;84.44;97795.19;5089984;28;9527;-56
2021/12/28 04:10:52;;;;;;;;;0.00;0.00;;;;;8.03;84.32;97799.06;5089831;28;8830;-57
2021/12/28 04:13:20;;;;;;;;;0.00;0.00;;;;;8.17;83.97;97794.97;5091005;28;8850;-57
2021/12/28 04:15:47;;;;;;;;;2.50;2.50;;;;;8.28;83.52;97794.72;5091089;28;8899;-57
2021/12/28 04:18:15;;;;;;;;;1.00;1.00;;;;;8.40;83.50;97781.00;5089755;28;9816;-56
2021/12/28 04:20:43;;;;;;;;;2.50;2.00;;;;;8.49;83.11;97788.00;5090586;28;8850;-56
2021/12/28 04:23:11;;;;;;;;;2.00;2.00;;;;;8.60;83.59;97785.03;5090712;28;8858;-57
2021/12/28 04:25:38;;;;;;;;;0.00;0.00;;;;;8.68;83.05;97790.34;5091012;28;8864;-56
2021/12/28 04:28:06;;;;;;;;;3.00;0.75;;;;;8.76;82.81;97782.44;5090703;28;8872;-56
2021/12/28 04:30:34;;;;;;;;;0.50;0.50;;;;;8.87;82.87;97782.09;5090429;28;9756;-57
2021/12/28 04:33:02;;;;;;;;;0.00;0.00;;;;;8.95;82.53;97768.81;5089968;28;8838;-56
2021/12/28 04:35:29;;;;;;;;;2.50;2.50;;;;;8.99;83.07;97770.16;5090429;28;8864;-56
2021/12/28 04:37:57;;;;;;;;;0.00;0.00;;;;;9.01;82.74;97770.81;5090475;28;8864;-57
2021/12/28 04:40:25;;;;;;;;;2.00;1.00;;;;;9.06;82.40;97765.88;5088753;28;8862;-56
2021/12/28 04:42:53;;;;;;;;;0.25;0.00;;;;;9.08;82.47;97771.81;5090247;28;8845;-57
2021/12/28 04:45:21;;;;;;;;;1.00;1.00;;;;;9.14;82.87;97759.72;5090539;28;8845;-57
2021/12/28 04:47:48;;;;;;;;;4.50;4.50;;;;;9.18;82.44;97758.38;5089712;28;8838;-57
2021/12/28 04:50:16;;;;;;;;;0.25;0.00;;;;;9.23;82.64;97756.88;5089851;28;9691;-57
2021/12/28 04:52:45;;;;;;;;;1.00;0.00;;;;;9.27;82.72;97746.75;5090042;28;8841;-57
2021/12/28 04:55:13;;;;;;;;;0.50;0.50;;;;;9.32;82.48;97752.38;5090557;28;8826;-57
2021/12/28 04:57:41;;;;;;;;;0.75;0.25;;;;;9.35;82.49;97752.88;5089868;28;8846;-57
2021/12/28 05:00:08;;;;;;;;;0.50;0.50;;;;;9.35;82.51;97750.22;5091212;28;8849;-57
2021/12/28 05:02:36;;;;;;;;;2.00;1.50;;;;;9.34;82.77;97745.91;5089876;28;8833;-57
2021/12/28 05:05:08;;;;;;;;;0.00;0.00;;;;;9.32;82.56;97742.59;5090814;28;8857;-57
2021/12/28 05:07:35;;;;;;;;;3.00;3.00;;;;;9.33;83.00;97738.94;5090342;28;8850;-57
2021/12/28 05:10:03;;;;;;;;;2.50;1.50;;;;;9.35;83.09;97736.94;5089991;28;9610;-57
2021/12/28 05:12:31;;;;;;;;;1.00;1.00;;;;;9.37;82.72;97742.09;5090577;28;8846;-57
2021/12/28 05:15:00;;;;;;;;;2.50;2.00;;;;;9.37;82.79;97734.97;5090928;28;8826;-57
2021/12/28 05:17:27;;;;;;;;;3.00;3.00;;;;;9.33;83.15;97738.94;5089949;28;8976;-57
2021/12/28 05:19:55;;;;;;;;;1.00;1.00;;;;;9.30;83.01;97738.44;5089069;28;8833;-57
2021/12/28 05:22:23;;;;;;;;;1.00;1.00;;;;;9.29;83.40;97742.09;5090687;28;8891;-57
2021/12/28 05:24:50;;;;;;;;;0.00;0.00;;;;;9.28;83.18;97727.16;5088993;28;10004;-57
2021/12/28 05:27:18;;;;;;;;;4.00;4.00;;;;;9.26;83.45;97737.94;5090227;28;8848;-57
2021/12/28 05:29:46;;;;;;;;;0.25;0.00;;;;;9.24;83.45;97732.00;5091075;28;8842;-57
2021/12/28 05:32:14;;;;;;;;;1.00;1.00;;;;;9.26;83.37;97726.53;5089482;28;8849;-57
2021/12/28 05:34:41;;;;;;;;;1.00;1.00;;;;;9.22;83.57;97725.19;5089169;28;8838;-57
2021/12/28 05:37:09;;;;;;;;;3.00;1.00;;;;;9.19;83.29;97721.03;5090192;28;8964;-57
2021/12/28 05:39:36;;;;;;;;;3.00;1.00;;;;;9.17;83.68;97717.72;5089257;28;8862;-57
2021/12/28 05:42:04;;;;;;;;;1.00;1.00;;;;;9.18;83.21;97729.19;5091226;28;8837;-57
2021/12/28 05:44:32;;;;;;;;;2.50;0.75;;;;;9.18;83.70;97727.34;5092811;28;8919;-57
2021/12/28 05:47:00;;;;;;;;;0.50;0.50;;;;;9.20;83.52;97720.03;5092474;28;8838;-57
2021/12/28 05:49:27;;;;;;;;;2.00;2.00;;;;;9.19;83.60;97729.00;5092622;28;8952;-57
2021/12/28 05:51:55;;;;;;;;;1.00;1.00;;;;;9.21;83.69;97719.06;5093324;28;8826;-57
2021/12/28 05:54:23;;;;;;;;;3.25;3.00;;;;;9.24;83.35;97718.72;5093637;28;8837;-57
2021/12/28 05:56:50;;;;;;;;;3.75;3.25;;;;;9.24;83.66;97713.41;5092866;28;8834;-57
2021/12/28 05:59:18;;;;;;;;;3.50;3.00;;;;;9.26;83.38;97708.75;5092636;28;8842;-57
2021/12/28 06:01:46;;;;;;;;;1.00;1.00;;;;;9.25;83.56;97704.44;5091302;28;8841;-57
2021/12/28 06:04:15;;;;;;;;;1.25;0.00;;;;;9.23;83.70;97701.13;5092673;28;8865;-57
2021/12/28 06:06:42;;;;;;;;;1.00;1.00;;;;;9.23;83.62;97698.47;5091475;28;8960;-57
2021/12/28 06:09:10;;;;;;;;;2.25;1.50;;;;;9.28;83.22;97700.63;5091343;28;8920;-57
2021/12/28 06:11:38;;;;;;;;;1.00;1.00;;;;;9.34;83.31;97694.63;5092163;28;8859;-57
2021/12/28 06:14:06;;;;;;;;;1.00;1.00;;;;;9.36;83.23;97696.13;5092554;28;8950;-57
2021/12/28 06:16:34;;;;;;;;;0.50;0.50;;;;;9.40;83.13;97697.44;5092692;28;8861;-57
2021/12/28 06:19:02;;;;;;;;;0.00;0.00;;;;;9.41;83.47;97688.47;5092830;28;8833;-57
2021/12/28 06:21:31;;;;;;;;;3.00;1.50;;;;;9.43;83.60;97689.09;5091716;28;9267;-57
2021/12/28 06:23:59;;;;;;;;;0.25;0.25;;;;;9.45;83.26;97684.47;5091769;28;9514;-57
2021/12/28 06:26:27;;;;;;;;;4.00;2.50;;;;;9.46;82.85;97683.47;5091178;28;8838;-57
2021/12/28 06:28:55;;;;;;;;;1.00;0.50;;;;;9.46;83.20;97685.28;5092206;28;8849;-57
2021/12/28 06:31:23;;;;;;;;;1.00;0.00;;;;;9.46;83.42;97683.47;5092007;28;8854;-57
2021/12/28 06:33:51;;;;;;;;;2.50;1.00;;;;;9.48;82.93;97683.31;5091289;28;8919;-57
2021/12/28 06:36:18;;;;;;;;;0.00;0.00;;;;;9.45;82.94;97689.78;5091464;28;8846;-57
2021/12/28 06:38:46;;;;;;;;;3.00;1.00;;;;;9.40;83.49;97685.97;5091624;28;8846;-57
2021/12/28 06:41:13;;;;;;;;;0.00;0.00;;;;;9.41;83.20;97682.34;5091068;28;8878;-57
2021/12/28 06:43:41;;;;;;;;;0.00;0.00;;;;;9.41;83.51;97688.47;5092538;28;8872;-57
2021/12/28 06:46:09;;;;;;;;;1.00;0.00;;;;;9.40;83.39;97680.66;5089670;28;8858;-57
2021/12/28 06:48:36;;;;;;;;;1.50;0.25;;;;;9.37;83.22;97676.53;5091179;28;8845;-57
2021/12/28 06:51:05;;;;;;;;;0.00;0.00;;;;;9.36;83.29;97680.19;5090523;28;8862;-56
2021/12/28 06:53:33;;;;;;;;;0.00;0.00;;;;;9.37;83.66;97686.31;5089775;28;8822;-57
2021/12/28 06:56:03;;;;;;;;;0.00;0.00;;;;;9.39;83.41;97693.13;5089189;28;8838;-57
2021/12/28 06:58:30;;;;;;;;;0.00;0.00;;;;;9.45;83.32;97700.41;5091195;28;8877;-57
2021/12/28 07:00:59;;;;;;;;;0.00;0.00;;;;;9.49;83.40;97699.06;5086862;28;8964;-57
2021/12/28 07:03:27;;;;;;;;;0.75;0.75;;;;;9.51;83.04;97697.09;5090354;28;8942;-57
2021/12/28 07:05:54;;;;;;;;;0.75;0.00;;;;;9.52;83.12;97695.25;5089408;28;8854;-57
2021/12/28 07:08:22;;;;;;;;;0.00;0.00;;;;;9.51;83.14;97682.97;5090986;28;8838;-57
2021/12/28 07:10:49;;;;;;;;;0.50;0.00;;;;;9.53;83.35;97681.78;5088425;28;8860;-57
2021/12/28 07:13:17;;;;;;;;;1.00;0.75;;;;;9.52;83.21;97680.13;5090624;28;8860;-57
2021/12/28 07:15:45;;;;;;;;;0.00;0.00;;;;;9.52;82.68;97679.31;5089239;28;8870;-57
2021/12/28 07:18:12;;;;;;;;;2.00;1.00;;;;;9.52;83.00;97677.47;5087533;28;9558;-57
2021/12/28 07:20:40;;;;;;;;;0.00;0.00;;;;;9.54;83.41;97671.97;5089784;28;10090;-57
2021/12/28 07:23:08;;;;;;;;;0.00;0.00;;;;;9.57;83.09;97675.13;5088727;28;8841;-57
2021/12/28 07:25:36;;;;;;;;;1.00;0.00;;;;;9.60;82.75;97666.81;5090407;28;8846;-57
2021/12/28 07:28:03;;;;;;;;;0.00;0.00;;;;;9.59;83.16;97667.00;5090659;28;8842;-57
2021/12/28 07:30:31;;;;;;;;;0.00;0.00;;;;;9.56;83.33;97667.34;5089863;28;8842;-57
2021/12/28 07:32:59;;;;;;;;;0.00;0.00;;;;;9.50;83.10;97663.53;5089649;28;8846;-57
2021/12/28 07:35:27;;;;;;;;;1.00;1.00;;;;;9.47;83.42;97666.53;5087250;28;8849;-57
2021/12/28 07:37:54;;;;;;;;;0.00;0.00;;;;;9.47;83.18;97669.19;5087635;28;8850;-57
2021/12/28 07:40:22;;;;;;;;;0.00;0.00;;;;;9.45;83.01;97663.22;5087923;28;8883;-57
2021/12/28 07:42:50;;;;;;;;;1.00;1.00;;;;;9.44;83.23;97666.03;5087750;28;8851;-57
2021/12/28 07:45:18;;;;;;;;;0.00;0.00;;;;;9.44;83.23;97666.03;5087532;28;8964;-57
2021/12/28 07:47:45;;;;;;;;;0.00;0.00;;;;;9.42;83.04;97674.19;5087713;28;8927;-57
2021/12/28 07:50:13;;;;;;;;;0.25;0.00;;;;;9.40;83.18;97667.38;5088552;28;8976;-57
2021/12/28 07:52:41;;;;;;;;;0.25;0.00;;;;;9.41;83.47;97671.72;5087983;28;9109;-57
2021/12/28 07:55:09;;;;;;;;;0.00;0.00;;;;;9.40;83.53;97670.88;5089059;28;8834;-57
2021/12/28 07:57:37;;;;;;;;;0.00;0.00;;;;;9.41;83.64;97672.53;5088374;28;9954;-57
2021/12/28 08:00:04;;;;;;;;;0.00;0.00;;;;;9.40;83.29;97664.72;5087579;28;8852;-57
2021/12/28 08:02:32;;;;;;;;;0.00;0.00;;;;;9.37;83.39;97657.94;5088198;28;8860;-57
2021/12/28 08:05:00;;;;;;;;;0.00;0.00;;;;;9.36;83.79;97658.94;5087250;28;8852;-57
2021/12/28 08:07:28;;;;;;;;;0.00;0.00;;;;;9.38;83.54;97670.22;5087563;28;8834;-57
2021/12/28 08:09:56;;;;;;;;;0.00;0.00;;;;;9.38;83.09;97669.38;5087492;28;8859;-57
2021/12/28 08:12:23;;;;;;;;;0.00;0.00;;;;;9.35;83.26;97667.06;5085811;28;8945;-57
2021/12/28 08:14:51;;;;;;;;;0.00;0.00;;;;;9.36;83.21;97674.03;5086971;28;8838;-57
2021/12/28 08:17:19;;;;;;;;;0.00;0.00;;;;;9.36;83.53;97669.56;5087566;28;8865;-57
2021/12/28 08:19:46;;;;;;;;;0.00;0.00;;;;;9.36;83.88;97666.91;5086007;28;8850;-57
2021/12/28 08:22:15;;;;;;;;;0.00;0.00;;;;;9.33;83.65;97658.47;5089058;28;8968;-57
2021/12/28 08:24:43;;;;;;;;;0.00;0.00;;;;;9.34;83.49;97655.59;5085199;28;8883;-57
2021/12/28 08:27:11;;;;;;;;;0.00;0.00;;;;;9.34;83.83;97657.44;5087775;28;8866;-57
2021/12/28 08:29:38;;;;;;;;;0.00;0.00;;;;;9.34;83.29;97655.59;5085564;28;8853;-57
2021/12/28 08:32:07;;;;;;;;;0.00;0.00;;;;;9.34;83.75;97652.13;5085137;28;8853;-57
2021/12/28 08:34:35;;;;;;;;;0.00;0.00;;;;;9.36;83.78;97653.63;5084315;28;8853;-57
2021/12/28 08:37:03;;;;;;;;;0.00;0.00;;;;;9.41;83.36;97655.78;5087389;28;8837;-57
2021/12/28 08:39:31;;;;;;;;;0.00;0.00;;;;;9.46;83.00;97659.56;5084221;28;9670;-57
2021/12/28 08:41:59;;;;;;;;;0.00;0.00;;;;;9.55;83.34;97653.22;5084594;28;8956;-57
2021/12/28 08:44:28;;;;;;;;;1.00;0.00;;;;;9.60;82.88;97660.66;5086079;28;8846;-57
2021/12/28 08:46:56;;;;;;;;;0.00;0.00;;;;;9.61;82.90;97647.22;5084443;28;8866;-58
2021/12/28 08:49:23;;;;;;;;;0.00;0.00;;;;;9.63;82.67;97650.53;5085804;28;8896;-57
2021/12/28 08:51:51;;;;;;;;;0.00;0.00;;;;;9.65;83.11;97659.16;5084788;28;9141;-57
2021/12/28 08:54:19;;;;;;;;;0.00;0.00;;;;;9.70;82.85;97675.41;5085929;28;8860;-57
2021/12/28 08:56:47;;;;;;;;;0.00;0.00;;;;;9.80;82.36;97667.25;5082946;28;8842;-57
2021/12/28 08:59:15;;;;;;;;;0.00;0.00;;;;;9.93;82.43;97668.34;5085619;28;8838;-58
2021/12/28 09:01:43;;;;;;;;;0.00;0.00;;;;;10.00;81.88;97671.13;5083934;28;8841;-57
2021/12/28 09:04:11;;;;;;;;;0.00;0.00;;;;;10.05;81.94;97676.78;5086089;28;8830;-57
2021/12/28 09:06:39;;;;;;;;;0.00;0.00;;;;;10.07;81.85;97669.44;5085598;28;8854;-57
2021/12/28 09:09:06;;;;;;;;;0.00;0.00;;;;;10.11;81.78;97668.91;5084416;28;8857;-57
2021/12/28 09:11:34;;;;;;;;;0.00;0.00;;;;;10.16;81.69;97665.78;5084330;28;8960;-57
2021/12/28 09:14:02;;;;;;;;;0.00;0.00;;;;;10.20;82.00;97665.25;5086223;28;8842;-57
2021/12/28 09:16:29;;;;;;;;;0.00;0.00;;;;;10.25;81.56;97651.41;5087097;28;8870;-57
2021/12/28 09:18:57;;;;;;;;;0.00;0.00;;;;;10.26;81.89;97645.91;5087901;28;8854;-57
2021/12/28 09:21:25;;;;;;;;;0.00;0.00;;;;;10.27;82.03;97646.72;5086284;28;8857;-57
2021/12/28 09:23:53;;;;;;;;;0.00;0.00;;;;;10.33;81.54;97648.69;5088300;28;8838;-57
2021/12/28 09:26:40;;;;;;;;;0.00;0.00;;;;;10.40;81.23;97649.66;5086891;28;8846;-57
2021/12/28 09:29:08;;;;;;;;;0.00;0.00;;;;;10.49;81.08;97660.06;5088116;28;8884;-57
2021/12/28 09:31:36;;;;;;;;;0.00;0.00;;;;;10.56;80.99;97647.66;5088398;28;8853;-56
2021/12/28 09:34:04;;;;;;;;;0.00;0.00;;;;;10.59;80.61;97644.66;5086756;28;8976;-57
2021/12/28 09:36:52;;;;;;;;;0.00;0.00;;;;;10.53;81.04;97637.41;5087936;28;8858;-57
2021/12/28 09:39:22;;;;;;;;;0.00;0.00;;;;;10.49;80.72;97632.63;5089593;28;8850;-57
2021/12/28 09:41:50;;;;;;;;;0.50;0.00;;;;;10.46;81.48;97631.13;5086050;28;8838;-57
2021/12/28 09:44:18;;;;;;;;;0.00;0.00;;;;;10.45;80.90;97637.47;5086905;28;8864;-57
2021/12/28 09:46:46;;;;;;;;;0.00;0.00;;;;;10.44;81.49;97643.78;5089688;28;8906;-56
2021/12/28 09:49:14;;;;;;;;;0.00;0.00;;;;;10.57;81.37;97646.69;5084171;28;8842;-56
2021/12/28 09:51:44;;;;;;;;;0.00;0.00;;;;;10.70;80.84;97651.41;5087415;28;8993;-57
2021/12/28 09:54:12;;;;;;;;;0.00;0.00;;;;;10.77;80.20;97629.19;5088278;28;8837;-57
2021/12/28 09:56:40;;;;;;;;;0.00;0.00;;;;;10.76;80.63;97634.72;5087026;28;8845;-57
2021/12/28 09:59:08;;;;;;;;;0.00;0.00;;;;;10.69;80.34;97628.47;5086640;28;8946;-57
2021/12/28 10:01:36;;;;;;;;;0.00;0.00;;;;;10.64;80.70;97631.66;5083243;28;8868;-57
2021/12/28 10:04:04;;;;;;;;;0.00;0.00;;;;;10.59;80.84;97644.66;5085353;28;8841;-57
2021/12/28 10:06:32;;;;;;;;;0.00;0.00;;;;;10.56;80.82;97646.84;5087021;28;8849;-57
2021/12/28 10:08:59;;;;;;;;;0.50;0.00;;;;;10.53;81.07;97640.06;5087325;28;8846;-57
2021/12/28 10:11:27;;;;;;;;;0.00;0.00;;;;;10.54;81.15;97639.03;5087288;28;8865;-57
2021/12/28 10:13:56;;;;;;;;;0.00;0.00;;;;;10.56;80.97;97629.03;5086719;28;8829;-57
2021/12/28 10:16:24;;;;;;;;;0.00;0.00;;;;;10.60;81.40;97616.22;5085687;28;8877;-57
2021/12/28 10:18:51;;;;;;;;;0.00;0.00;;;;;10.75;80.92;97619.75;5087923;28;8834;-56
2021/12/28 10:21:19;;;;;;;;;0.00;0.00;;;;;10.79;80.78;97613.91;5086969;28;8841;-57
2021/12/28 10:23:47;;;;;;;;;0.00;0.00;;;;;10.82;80.88;97610.88;5086219;28;8854;-57
2021/12/28 10:26:16;;;;;;;;;0.00;0.00;;;;;10.83;80.09;97617.84;5084914;28;8870;-57
2021/12/28 10:28:44;;;;;;;;;0.00;0.00;;;;;10.82;80.53;97610.03;5083862;28;9013;-56
2021/12/28 10:31:11;;;;;;;;;0.00;0.00;;;;;10.85;80.53;97609.69;5083476;28;8960;-57
2021/12/28 10:33:39;;;;;;;;;0.00;0.00;;;;;10.87;80.40;97605.84;5081178;28;8873;-57
2021/12/28 10:36:07;;;;;;;;;1.00;1.00;;;;;10.91;80.22;97601.78;5080992;28;8861;-57
2021/12/28 10:38:35;;;;;;;;;0.00;0.00;;;;;10.94;79.94;97593.44;5083067;28;8842;-57
2021/12/28 10:41:03;;;;;;;;;0.00;0.00;;;;;10.97;79.88;97590.41;5081947;28;8853;-57
2021/12/28 10:43:31;;;;;;;;;0.00;0.00;;;;;10.99;80.03;97590.25;5086088;28;8830;-57
2021/12/28 10:46:01;;;;;;;;;0.00;0.00;;;;;10.99;80.17;97599.03;5085715;28;8943;-57
2021/12/28 10:48:30;;;;;;;;;0.25;0.25;;;;;10.99;79.92;97574.25;5085088;28;8858;-57
2021/12/28 10:51:01;;;;;;;;;0.00;0.00;;;;;10.99;80.31;97566.28;5084081;28;9753;-57
2021/12/28 10:53:35;;;;;;;;;0.00;0.00;;;;;11.00;80.23;97565.25;5084649;28;8849;-57
2021/12/28 10:56:03;;;;;;;;;0.00;0.00;;;;;11.00;79.99;97558.09;5081932;28;8845;-57
2021/12/28 10:58:30;;;;;;;;;0.00;0.00;;;;;11.00;80.14;97557.28;5081791;28;8907;-57
2021/12/28 11:00:58;;;;;;;;;0.00;0.00;;;;;10.99;80.21;97559.09;5082976;28;8858;-57
2021/12/28 11:03:30;;;;;;;;;0.00;0.00;;;;;10.99;80.00;97553.78;5084500;28;8977;-57
2021/12/28 11:05:58;;;;;;;;;0.00;0.00;;;;;10.97;79.98;97553.13;5082457;28;8857;-57
2021/12/28 11:08:25;;;;;;;;;0.25;0.00;;;;;10.96;80.43;97547.97;5083246;28;8854;-57
2021/12/28 11:10:54;;;;;;;;;0.00;0.00;;;;;10.97;80.62;97553.13;5083327;28;8846;-57
2021/12/28 11:13:22;;;;;;;;;0.00;0.00;;;;;10.96;80.38;97540.84;5083970;28;8853;-57
2021/12/28 11:15:49;;;;;;;;;0.00;0.00;;;;;10.94;79.89;97542.84;5083926;28;8866;-57
2021/12/28 11:18:17;;;;;;;;;0.00;0.00;;;;;10.93;80.34;97538.53;5081342;28;8860;-57
2021/12/28 11:20:45;;;;;;;;;0.00;0.00;;;;;10.89;80.88;97533.75;5081102;28;8968;-57
2021/12/28 11:23:13;;;;;;;;;0.00;0.00;;;;;10.83;80.30;97535.31;5077259;28;8853;-57
2021/12/28 11:25:41;;;;;;;;;0.00;0.00;;;;;10.81;81.09;97524.03;5084632;28;8849;-57
2021/12/28 11:28:11;;;;;;;;;0.00;0.00;;;;;10.85;80.90;97512.00;5083653;28;8873;-57
2021/12/28 11:30:39;;;;;;;;;0.00;0.00;;;;;10.89;80.58;97509.78;5083827;28;8849;-57
2021/12/28 11:33:07;;;;;;;;;0.00;0.00;;;;;10.94;80.85;97516.22;5084475;28;8850;-56
2021/12/28 11:35:35;;;;;;;;;0.00;0.00;;;;;10.99;80.61;97508.50;5080733;28;8846;-57
2021/12/28 11:38:03;;;;;;;;;0.00;0.00;;;;;11.03;80.58;97509.81;5083871;28;8850;-57
2021/12/28 11:40:31;;;;;;;;;0.00;0.00;;;;;11.07;80.51;97499.59;5082347;28;8984;-57
2021/12/28 11:42:59;;;;;;;;;0.00;0.00;;;;;11.13;80.72;97493.53;5080170;28;8927;-57
2021/12/28 11:45:27;;;;;;;;;0.00;0.00;;;;;11.21;80.40;97496.91;5083610;28;8985;-56
2021/12/28 11:47:55;;;;;;;;;0.00;0.00;;;;;11.27;80.59;97487.34;5084138;28;9001;-57
2021/12/28 11:50:23;;;;;;;;;0.00;0.00;;;;;11.25;80.65;97492.88;5084268;28;8853;-57
2021/12/28 11:52:52;;;;;;;;;0.00;0.00;;;;;11.21;80.62;97488.13;5082617;28;8863;-57